createdAt,value
2018-05-31T00:01:39.285Z,12.93
2018-05-31T00:04:05.167Z,12.33
2018-05-31T00:06:31.090Z,12.60
2018-05-31T00:08:56.944Z,12.73
2018-05-31T00:11:22.804Z,13.60
2018-05-31T00:13:48.692Z,12.90
2018-05-31T00:16:14.581Z,13.53
2018-05-31T00:18:40.465Z,13.60
2018-05-31T00:21:06.335Z,14.50
2018-05-31T00:23:32.196Z,15.30
2018-05-31T00:25:58.085Z,13.93
2018-05-31T00:28:23.981Z,15.70
2018-05-31T00:30:49.850Z,14.27
2018-05-31T00:33:15.709Z,13.00
2018-05-31T00:35:41.583Z,15.10
2018-05-31T00:38:07.437Z,14.10
2018-05-31T00:40:33.274Z,14.10
2018-05-31T00:42:59.184Z,15.50
2018-05-31T00:45:25.027Z,13.13
2018-05-31T00:47:50.885Z,13.90
2018-05-31T00:50:16.796Z,14.10
2018-05-31T00:52:42.687Z,15.43
2018-05-31T00:55:08.574Z,13.23
2018-05-31T00:57:34.397Z,13.23
2018-05-31T01:00:00.263Z,12.87
2018-05-31T01:02:26.134Z,13.50
2018-05-31T01:04:52.009Z,13.70
2018-05-31T01:07:17.916Z,13.27
2018-05-31T01:09:43.780Z,13.23
2018-05-31T01:12:09.633Z,14.20
2018-05-31T01:14:35.492Z,13.20
2018-05-31T01:17:01.368Z,13.90
2018-05-31T01:19:27.240Z,12.47
2018-05-31T01:21:53.094Z,14.00
2018-05-31T01:24:18.926Z,14.23
2018-05-31T01:26:44.808Z,12.00
2018-05-31T01:29:10.681Z,13.93
2018-05-31T01:31:36.554Z,12.87
2018-05-31T01:34:02.413Z,14.83
2018-05-31T01:36:28.258Z,13.73
2018-05-31T01:38:54.137Z,13.10
2018-05-31T01:41:20.043Z,13.10
2018-05-31T01:43:45.950Z,12.47
2018-05-31T01:46:11.829Z,13.63
2018-05-31T01:48:37.700Z,14.77
2018-05-31T01:51:03.621Z,12.93
2018-05-31T01:53:29.481Z,12.87
2018-05-31T01:55:55.329Z,12.77
2018-05-31T01:58:21.200Z,13.90
2018-05-31T02:00:47.111Z,13.63
2018-05-31T02:03:12.989Z,13.03
2018-05-31T02:05:38.845Z,13.13
2018-05-31T02:08:04.784Z,14.17
2018-05-31T02:10:30.650Z,13.53
2018-05-31T02:12:56.514Z,13.77
2018-05-31T02:15:22.368Z,15.00
2018-05-31T02:17:48.261Z,13.40
2018-05-31T02:20:14.138Z,14.33
2018-05-31T02:22:40.023Z,14.73
2018-05-31T02:25:05.875Z,14.00
2018-05-31T02:27:31.722Z,14.80
2018-05-31T02:29:57.614Z,14.23
2018-05-31T02:32:23.481Z,13.27
2018-05-31T02:34:49.343Z,15.43
2018-05-31T02:37:15.200Z,13.77
2018-05-31T02:39:41.071Z,15.20
2018-05-31T02:42:06.908Z,15.43
2018-05-31T02:44:32.804Z,15.20
2018-05-31T02:46:58.684Z,14.47
2018-05-31T02:49:24.557Z,14.17
2018-05-31T02:51:50.442Z,13.77
2018-05-31T02:54:16.335Z,15.57
2018-05-31T02:56:42.210Z,13.27
2018-05-31T02:59:08.054Z,15.60
2018-05-31T03:01:33.932Z,15.13
2018-05-31T03:03:59.781Z,14.40
2018-05-31T03:06:25.663Z,13.70
2018-05-31T03:08:51.533Z,13.67
2018-05-31T03:11:17.417Z,12.53
2018-05-31T03:13:43.269Z,13.60
2018-05-31T03:16:09.122Z,12.90
2018-05-31T03:18:34.956Z,13.10
2018-05-31T03:21:00.818Z,13.60
2018-05-31T03:23:26.699Z,13.40
2018-05-31T03:25:52.563Z,13.33
2018-05-31T03:28:18.400Z,13.23
2018-05-31T03:30:44.236Z,15.37
2018-05-31T03:33:10.112Z,14.63
2018-05-31T03:35:35.944Z,13.83
2018-05-31T03:38:01.789Z,15.33
2018-05-31T03:40:27.656Z,14.13
2018-05-31T03:42:53.545Z,13.13
2018-05-31T03:45:19.398Z,13.87
2018-05-31T03:47:45.241Z,15.23
2018-05-31T03:50:11.156Z,13.93
2018-05-31T03:52:36.989Z,14.07
2018-05-31T03:55:02.853Z,15.10
2018-05-31T03:57:28.732Z,13.97
2018-05-31T03:59:54.613Z,14.73
2018-05-31T04:02:20.580Z,15.13
2018-05-31T04:04:46.470Z,15.17
2018-05-31T04:07:12.340Z,14.73
2018-05-31T04:09:38.197Z,14.00
2018-05-31T04:12:04.109Z,14.33
2018-05-31T04:14:29.972Z,14.20
2018-05-31T04:16:55.847Z,14.80
2018-05-31T04:19:21.712Z,14.43
2018-05-31T04:21:47.595Z,15.40
2018-05-31T04:24:13.463Z,14.57
2018-05-31T04:26:39.327Z,15.20
2018-05-31T04:29:05.195Z,13.70
2018-05-31T04:31:31.079Z,14.50
2018-05-31T04:33:56.933Z,15.20
2018-05-31T04:36:22.817Z,15.40
2018-05-31T04:38:48.688Z,15.87
2018-05-31T04:41:14.622Z,17.20
2018-05-31T04:43:40.482Z,15.40
2018-05-31T04:46:06.332Z,16.40
2018-05-31T04:48:32.212Z,18.60
2018-05-31T04:50:58.061Z,17.47
2018-05-31T04:53:23.921Z,18.90
2018-05-31T04:55:49.762Z,18.17
2018-05-31T04:58:15.602Z,18.23
2018-05-31T05:00:41.460Z,18.53
2018-05-31T05:03:07.433Z,18.30
2018-05-31T05:05:33.305Z,21.03
2018-05-31T05:07:59.154Z,19.83
2018-05-31T05:10:25.042Z,21.00
2018-05-31T05:12:50.897Z,21.03
2018-05-31T05:15:16.760Z,22.53
2018-05-31T05:17:42.621Z,20.40
2018-05-31T05:20:08.500Z,21.23
2018-05-31T05:22:34.398Z,20.93
2018-05-31T05:25:00.265Z,20.50
2018-05-31T05:27:26.154Z,22.27
2018-05-31T05:29:52.017Z,20.30
2018-05-31T05:32:17.884Z,21.33
2018-05-31T05:34:43.769Z,23.50
2018-05-31T05:37:09.685Z,21.40
2018-05-31T05:39:35.549Z,21.30
2018-05-31T05:42:01.425Z,21.23
2018-05-31T05:44:27.289Z,20.57
2018-05-31T05:46:53.152Z,20.97
2018-05-31T05:49:19.026Z,21.53
2018-05-31T05:51:44.894Z,22.20
2018-05-31T05:54:10.754Z,23.87
2018-05-31T05:56:36.599Z,22.07
2018-05-31T05:59:02.501Z,22.03
2018-05-31T06:01:30.879Z,22.13
2018-05-31T06:03:56.711Z,23.80
2018-05-31T06:06:22.587Z,20.90
2018-05-31T06:08:48.493Z,22.83
2018-05-31T06:11:14.342Z,20.87
2018-05-31T06:13:40.233Z,20.70
2018-05-31T06:16:06.129Z,20.97
2018-05-31T06:18:32.013Z,22.40
2018-05-31T06:20:57.853Z,20.30
2018-05-31T06:23:23.744Z,20.63
2018-05-31T06:25:49.626Z,20.40
2018-05-31T06:28:15.517Z,20.33
2018-05-31T06:30:41.386Z,18.97
2018-05-31T06:33:07.213Z,18.20
2018-05-31T06:35:33.110Z,20.03
2018-05-31T06:37:58.952Z,21.33
2018-05-31T06:40:24.791Z,20.30
2018-05-31T06:42:50.651Z,19.80
2018-05-31T06:45:16.521Z,18.67
2018-05-31T06:47:42.373Z,18.60
2018-05-31T06:50:08.249Z,19.33
2018-05-31T06:52:34.111Z,20.27
2018-05-31T06:54:59.939Z,20.63
2018-05-31T06:57:25.788Z,20.23
2018-05-31T06:59:51.649Z,19.63
2018-05-31T07:02:17.509Z,18.30
2018-05-31T07:04:43.348Z,19.07
2018-05-31T07:07:09.209Z,17.60
2018-05-31T07:09:35.057Z,18.30
2018-05-31T07:12:00.906Z,16.50
2018-05-31T07:14:26.798Z,16.30
2018-05-31T07:16:52.625Z,17.50
2018-05-31T07:19:18.488Z,17.37
2018-05-31T07:21:44.397Z,17.30
2018-05-31T07:24:10.220Z,17.73
2018-05-31T07:26:36.089Z,17.23
2018-05-31T07:29:01.964Z,16.90
2018-05-31T07:31:27.838Z,17.13
2018-05-31T07:33:53.718Z,15.37
2018-05-31T07:36:19.600Z,17.57
2018-05-31T07:38:45.463Z,16.93
2018-05-31T07:41:11.341Z,17.27
2018-05-31T07:43:37.213Z,17.07
2018-05-31T07:46:03.087Z,18.10
2018-05-31T07:48:28.949Z,16.10
2018-05-31T07:50:54.805Z,17.10
2018-05-31T07:53:20.653Z,15.77
2018-05-31T07:55:46.541Z,16.70
2018-05-31T07:58:12.493Z,15.47
2018-05-31T08:00:38.325Z,15.93
2018-05-31T08:03:04.179Z,16.70
2018-05-31T08:05:30.029Z,14.57
2018-05-31T08:07:55.916Z,17.23
2018-05-31T08:10:21.770Z,16.00
2018-05-31T08:12:47.638Z,14.47
2018-05-31T08:15:13.583Z,14.17
2018-05-31T08:17:39.425Z,16.63
2018-05-31T08:20:05.312Z,14.97
2018-05-31T08:22:31.177Z,14.77
2018-05-31T08:24:57.042Z,15.10
2018-05-31T08:27:22.894Z,16.17
2018-05-31T08:29:48.770Z,14.93
2018-05-31T08:32:14.631Z,14.73
2018-05-31T08:34:40.498Z,15.40
2018-05-31T08:37:06.368Z,15.70
2018-05-31T08:39:32.241Z,14.20
2018-05-31T08:41:58.121Z,15.20
2018-05-31T08:44:23.960Z,13.87
2018-05-31T08:46:49.861Z,13.53
2018-05-31T08:49:15.730Z,15.27
2018-05-31T08:51:41.604Z,14.23
2018-05-31T08:54:07.466Z,13.93
2018-05-31T08:56:33.357Z,15.10
2018-05-31T08:58:59.256Z,13.10
2018-05-31T09:01:25.253Z,13.43
2018-05-31T09:03:51.098Z,13.23
2018-05-31T09:06:16.976Z,12.70
2018-05-31T09:08:42.865Z,15.57
2018-05-31T09:11:08.726Z,12.60
2018-05-31T09:13:34.586Z,13.13
2018-05-31T09:16:00.468Z,11.70
2018-05-31T09:18:26.366Z,11.97
2018-05-31T09:20:52.245Z,11.30
2018-05-31T09:23:18.150Z,10.97
2018-05-31T09:25:44.022Z,11.97
2018-05-31T09:28:09.916Z,11.50
2018-05-31T09:30:35.805Z,11.03
2018-05-31T09:33:01.678Z,10.33
2018-05-31T09:35:27.557Z,11.10
2018-05-31T09:37:53.447Z,12.03
2018-05-31T09:40:19.309Z,10.23
2018-05-31T09:42:45.165Z,10.43
2018-05-31T09:45:11.056Z,11.60
2018-05-31T09:47:36.946Z,9.43
2018-05-31T09:50:02.840Z,8.77
2018-05-31T09:52:28.745Z,9.10
2018-05-31T09:54:54.651Z,10.00
2018-05-31T09:57:20.545Z,8.50
2018-05-31T09:59:46.418Z,9.10
2018-05-31T10:02:12.381Z,8.47
2018-05-31T10:04:38.254Z,9.57
2018-05-31T10:07:04.160Z,8.53
2018-05-31T10:09:30.062Z,8.53
2018-05-31T10:11:56.009Z,8.40
2018-05-31T10:14:21.873Z,9.20
2018-05-31T10:16:47.749Z,8.60
2018-05-31T10:19:13.590Z,9.60
2018-05-31T10:21:39.434Z,10.70
2018-05-31T10:24:05.266Z,8.53
2018-05-31T10:26:31.118Z,9.50
2018-05-31T10:28:57.002Z,8.93
2018-05-31T10:31:22.874Z,9.50
2018-05-31T10:33:48.744Z,8.80
2018-05-31T10:36:14.591Z,8.50
2018-05-31T10:38:40.505Z,8.20
2018-05-31T10:41:06.377Z,8.67
2018-05-31T10:43:32.233Z,8.33
2018-05-31T10:45:58.121Z,8.47
2018-05-31T10:48:23.977Z,8.13
2018-05-31T10:50:49.863Z,7.70
2018-05-31T10:53:15.744Z,7.63
2018-05-31T10:55:41.626Z,6.80
2018-05-31T10:58:07.484Z,7.73
2018-05-31T11:00:33.401Z,7.30
2018-05-31T11:02:59.272Z,5.80
2018-05-31T11:05:25.158Z,6.23
2018-05-31T11:07:51.028Z,6.30
2018-05-31T11:10:16.908Z,7.90
2018-05-31T11:12:42.746Z,8.17
2018-05-31T11:15:08.600Z,8.10
2018-05-31T11:17:34.505Z,8.07
2018-05-31T11:20:00.355Z,7.93
2018-05-31T11:22:26.218Z,8.10
2018-05-31T11:24:52.079Z,9.17
2018-05-31T11:27:17.967Z,8.23
2018-05-31T11:29:43.830Z,9.50
2018-05-31T11:32:09.667Z,8.80
2018-05-31T11:34:35.557Z,7.53
2018-05-31T11:37:01.430Z,8.50
2018-05-31T11:39:27.319Z,7.80
2018-05-31T11:41:53.977Z,6.73
2018-05-31T11:44:19.838Z,6.53
2018-05-31T11:46:45.693Z,7.87
2018-05-31T11:49:11.607Z,7.57
2018-05-31T11:51:37.475Z,7.03
2018-05-31T11:54:03.370Z,5.93
2018-05-31T11:56:29.317Z,7.00
2018-05-31T12:01:50.069Z,5.30
2018-05-31T12:04:15.993Z,6.77
2018-05-31T12:06:41.900Z,5.73
2018-05-31T12:09:07.799Z,5.97
2018-05-31T12:11:33.734Z,5.40
2018-05-31T12:13:59.673Z,5.90
2018-05-31T12:16:25.594Z,5.80
2018-05-31T12:18:51.509Z,6.07
2018-05-31T12:21:17.373Z,6.07
2018-05-31T12:23:43.262Z,5.60
2018-05-31T12:26:09.152Z,7.10
2018-05-31T12:28:35.018Z,5.70
2018-05-31T12:31:00.898Z,5.40
2018-05-31T12:33:26.802Z,6.23
2018-05-31T12:35:52.696Z,5.83
2018-05-31T12:38:18.622Z,5.30
2018-05-31T12:40:44.642Z,6.03
2018-05-31T12:43:10.533Z,5.13
2018-05-31T12:45:36.443Z,6.63
2018-05-31T12:48:02.358Z,6.40
2018-05-31T12:50:28.255Z,6.27
2018-05-31T12:52:54.172Z,6.17
2018-05-31T12:55:20.065Z,6.73
2018-05-31T12:57:45.960Z,7.40
2018-05-31T13:00:14.433Z,6.97
2018-05-31T13:02:40.311Z,8.17
2018-05-31T13:05:06.161Z,7.40
2018-05-31T13:07:32.110Z,7.17
2018-05-31T13:09:57.977Z,6.67
2018-05-31T13:12:23.875Z,6.93
2018-05-31T13:14:50.966Z,6.40
2018-05-31T13:17:19.951Z,6.20
2018-05-31T13:19:47.562Z,7.30
2018-05-31T13:22:16.008Z,6.77
2018-05-31T13:24:43.086Z,6.40
2018-05-31T13:27:14.764Z,6.10
2018-05-31T13:29:42.771Z,6.87
2018-05-31T13:32:10.303Z,7.27
2018-05-31T13:34:43.294Z,6.50
2018-05-31T13:37:11.556Z,6.93
2018-05-31T13:39:37.540Z,6.53
2018-05-31T13:42:03.424Z,7.17
2018-05-31T13:44:31.280Z,6.20
2018-05-31T13:46:57.282Z,5.77
2018-05-31T13:49:23.189Z,6.30
2018-05-31T13:51:49.086Z,6.17
2018-05-31T13:54:15.008Z,6.47
2018-05-31T13:56:40.957Z,6.13
2018-05-31T13:59:06.889Z,6.67
2018-05-31T14:01:32.803Z,6.70
2018-05-31T14:03:58.797Z,6.20
2018-05-31T14:06:24.714Z,6.83
2018-05-31T14:08:50.613Z,6.53
2018-05-31T14:11:16.644Z,6.57
2018-05-31T14:13:42.533Z,6.40
2018-05-31T14:16:08.406Z,6.83
2018-05-31T14:18:34.409Z,6.40
2018-05-31T14:21:00.281Z,6.43
2018-05-31T14:23:26.181Z,6.97
2018-05-31T14:25:52.053Z,6.93
2018-05-31T14:28:17.929Z,7.07
2018-05-31T14:30:43.805Z,6.47
2018-05-31T14:33:09.709Z,6.83
2018-05-31T14:35:35.599Z,7.07
2018-05-31T14:38:01.546Z,6.20
2018-05-31T14:40:27.433Z,6.40
2018-05-31T14:42:53.290Z,6.40
2018-05-31T14:45:19.238Z,6.90
2018-05-31T14:47:45.129Z,7.53
2018-05-31T14:50:10.995Z,7.67
2018-05-31T14:52:36.837Z,6.27
2018-05-31T14:55:02.702Z,7.53
2018-05-31T14:57:28.540Z,7.57
2018-05-31T14:59:54.461Z,7.23
2018-05-31T15:02:20.345Z,8.23
2018-05-31T15:04:46.242Z,8.80
2018-05-31T15:07:12.142Z,8.70
2018-05-31T15:09:38.021Z,6.90
2018-05-31T15:12:03.938Z,5.87
2018-05-31T15:14:29.881Z,5.27
2018-05-31T15:16:55.765Z,6.40
2018-05-31T15:19:21.647Z,5.50
2018-05-31T15:21:47.528Z,6.77
2018-05-31T15:24:13.409Z,7.00
2018-05-31T15:26:39.334Z,5.70
2018-05-31T15:29:05.217Z,7.70
2018-05-31T15:31:31.130Z,9.13
2018-05-31T15:33:57.059Z,9.80
2018-05-31T15:36:22.954Z,11.57
2018-05-31T15:38:48.841Z,15.07
2018-05-31T15:41:14.748Z,11.27
2018-05-31T15:43:40.632Z,10.47
2018-05-31T15:46:06.520Z,11.30
2018-05-31T15:48:32.407Z,7.00
2018-05-31T15:50:58.292Z,6.80
2018-05-31T15:53:24.208Z,6.93
2018-05-31T15:55:50.119Z,7.23
2018-05-31T15:58:16.023Z,7.43
2018-05-31T16:00:41.948Z,8.77
2018-05-31T16:03:07.813Z,8.23
2018-05-31T16:05:33.706Z,6.07
2018-05-31T16:07:59.580Z,7.40
2018-05-31T16:10:25.491Z,8.63
2018-05-31T16:12:51.451Z,8.80
2018-05-31T16:15:17.332Z,11.90
2018-05-31T16:17:43.235Z,13.17
2018-05-31T16:20:09.137Z,10.60
2018-05-31T16:22:35.040Z,11.97
2018-05-31T16:25:00.920Z,12.00
2018-05-31T16:27:26.811Z,12.20
2018-05-31T16:29:52.720Z,12.00
2018-05-31T16:32:18.619Z,11.20
2018-05-31T16:34:44.562Z,10.97
2018-05-31T16:37:10.441Z,11.13
2018-05-31T16:39:36.350Z,10.67
2018-05-31T16:42:02.275Z,11.00
2018-05-31T16:44:28.188Z,11.73
2018-05-31T16:46:54.104Z,12.57
2018-05-31T16:49:20.036Z,44.87
2018-05-31T16:51:46.004Z,35.13
2018-05-31T16:54:11.870Z,25.90
2018-05-31T16:56:37.735Z,14.60
2018-05-31T16:59:03.609Z,13.20
2018-05-31T17:01:29.460Z,11.53
2018-05-31T17:03:55.337Z,12.33
2018-05-31T17:06:21.245Z,11.67
2018-05-31T17:08:47.119Z,13.00
2018-05-31T17:11:13.040Z,15.40
2018-05-31T17:13:38.874Z,15.23
2018-05-31T17:16:04.746Z,16.43
2018-05-31T17:18:30.621Z,16.73
2018-05-31T17:20:56.546Z,14.53
2018-05-31T17:23:22.386Z,16.40
2018-05-31T17:25:48.234Z,15.07
2018-05-31T17:28:14.105Z,14.40
2018-05-31T17:30:39.981Z,13.80
2018-05-31T17:33:05.872Z,13.50
2018-05-31T17:35:31.726Z,15.67
2018-05-31T17:37:57.580Z,17.07
2018-05-31T17:40:23.409Z,17.67
2018-05-31T17:42:49.281Z,16.87
2018-05-31T17:45:15.153Z,18.77
2018-05-31T17:47:41.011Z,18.40
2018-05-31T17:50:07.069Z,19.83
2018-05-31T17:52:32.924Z,19.20
2018-05-31T17:54:58.776Z,18.87
2018-05-31T17:57:24.621Z,20.37
2018-05-31T17:59:50.492Z,18.80
2018-05-31T18:02:16.365Z,20.77
2018-05-31T18:04:42.250Z,21.10
2018-05-31T18:07:08.077Z,21.20
2018-05-31T18:09:33.925Z,19.30
2018-05-31T18:11:59.797Z,20.10
2018-05-31T18:14:25.642Z,20.57
2018-05-31T18:16:51.480Z,22.70
2018-05-31T18:19:17.378Z,24.00
2018-05-31T18:21:43.250Z,23.93
2018-05-31T18:24:09.118Z,25.87
2018-05-31T18:26:34.985Z,24.33
2018-05-31T18:29:00.868Z,22.53
2018-05-31T18:31:26.833Z,23.10
2018-05-31T18:33:52.733Z,22.47
2018-05-31T18:36:18.618Z,21.87
2018-05-31T18:38:44.506Z,19.70
2018-05-31T18:41:10.374Z,18.50
2018-05-31T18:43:36.267Z,19.53
2018-05-31T18:46:02.122Z,21.30
2018-05-31T18:48:28.011Z,20.13
2018-05-31T18:50:53.976Z,20.57
2018-05-31T18:53:19.833Z,19.37
2018-05-31T18:55:45.720Z,17.80
2018-05-31T18:58:11.632Z,16.40
2018-05-31T19:00:37.515Z,14.50
2018-05-31T19:03:03.428Z,15.20
2018-05-31T19:05:29.323Z,14.37
2018-05-31T19:07:55.199Z,11.80
2018-05-31T19:10:21.084Z,13.27
2018-05-31T19:12:53.006Z,12.77
2018-05-31T19:15:21.766Z,12.60
2018-05-31T19:17:44.816Z,12.40
2018-05-31T19:20:10.763Z,13.30
2018-05-31T19:22:36.654Z,12.60
2018-05-31T19:25:08.606Z,10.50
2018-05-31T19:27:34.453Z,9.83
2018-05-31T19:30:06.505Z,9.57
2018-05-31T19:32:32.427Z,8.60
2018-05-31T19:34:58.256Z,8.87
2018-05-31T19:37:24.133Z,9.67
2018-05-31T19:39:50.022Z,9.20
2018-05-31T19:42:22.118Z,8.90
2018-05-31T19:44:47.969Z,11.10
2018-05-31T19:47:13.853Z,10.90
2018-05-31T19:49:39.717Z,11.50
2018-05-31T19:52:11.568Z,10.67
2018-05-31T19:54:37.465Z,10.83
2018-05-31T19:57:03.383Z,10.00
2018-05-31T19:59:35.420Z,8.20
2018-05-31T20:02:07.496Z,7.80
2018-05-31T20:04:33.350Z,8.93
2018-05-31T20:06:59.323Z,9.20
2018-05-31T20:09:25.169Z,6.30
2018-05-31T20:11:51.044Z,6.13
2018-05-31T20:14:16.926Z,4.60
2018-05-31T20:16:42.795Z,5.30
2018-05-31T20:19:08.689Z,6.00
2018-05-31T20:21:34.632Z,6.00
2018-05-31T20:24:00.561Z,6.13
2018-05-31T20:26:26.463Z,5.00
2018-05-31T20:28:52.316Z,5.87
2018-05-31T20:31:18.218Z,5.50
2018-05-31T20:33:44.100Z,6.00
2018-05-31T20:36:09.946Z,5.40
2018-05-31T20:38:35.841Z,5.73
2018-05-31T20:41:01.748Z,6.37
2018-05-31T20:43:27.685Z,5.83
2018-05-31T20:45:53.588Z,7.17
2018-05-31T20:48:19.484Z,6.27
2018-05-31T20:50:45.350Z,6.07
2018-05-31T20:53:11.200Z,6.70
2018-05-31T20:55:37.071Z,6.77
2018-05-31T20:58:02.932Z,7.50
2018-05-31T21:00:28.810Z,6.90
2018-05-31T21:02:54.641Z,7.60
2018-05-31T21:05:20.519Z,7.43
2018-05-31T21:07:46.427Z,7.47
2018-05-31T21:10:12.308Z,7.13
2018-05-31T21:12:38.217Z,8.87
2018-05-31T21:15:04.112Z,8.50
2018-05-31T21:17:30.052Z,9.60
2018-05-31T21:19:55.944Z,9.23
2018-05-31T21:22:21.776Z,8.57
2018-05-31T21:24:47.657Z,9.67
2018-05-31T21:27:13.526Z,8.67
2018-05-31T21:29:39.381Z,9.37
2018-05-31T21:32:05.232Z,10.80
2018-05-31T21:34:31.112Z,9.43
2018-05-31T21:36:56.968Z,10.00
2018-05-31T21:39:22.926Z,9.80
2018-05-31T21:41:48.808Z,9.87
2018-05-31T21:44:14.657Z,11.60
2018-05-31T21:46:40.517Z,12.00
2018-05-31T21:49:06.383Z,11.07
2018-05-31T21:51:32.280Z,11.67
2018-05-31T21:53:58.154Z,14.73
2018-05-31T21:56:24.012Z,21.30
2018-05-31T21:58:49.866Z,11.00
2018-05-31T22:01:15.714Z,11.30
2018-05-31T22:03:41.568Z,12.60
2018-05-31T22:06:07.440Z,12.47
2018-05-31T22:08:33.308Z,12.20
2018-05-31T22:10:59.190Z,12.10
2018-05-31T22:13:25.059Z,11.03
2018-05-31T22:15:50.920Z,12.47
2018-05-31T22:18:16.888Z,10.47
2018-05-31T22:20:42.741Z,12.97
2018-05-31T22:23:08.610Z,12.77
2018-05-31T22:25:34.468Z,13.93
2018-05-31T22:28:00.329Z,15.33
2018-05-31T22:30:26.208Z,12.83
2018-05-31T22:32:52.101Z,14.90
2018-05-31T22:35:17.992Z,13.27
2018-05-31T22:37:43.829Z,14.10
2018-05-31T22:40:09.677Z,14.37
2018-05-31T22:42:35.588Z,15.17
2018-05-31T22:45:01.442Z,15.47
2018-05-31T22:47:27.294Z,14.10
2018-05-31T22:49:53.137Z,14.13
2018-05-31T22:52:19.010Z,13.20
2018-05-31T22:54:44.890Z,14.07
2018-05-31T22:57:10.741Z,15.43
2018-05-31T22:59:36.592Z,14.00
2018-05-31T23:02:02.469Z,14.50
2018-05-31T23:04:28.330Z,15.47
2018-05-31T23:06:54.200Z,15.90
2018-05-31T23:09:20.092Z,15.00
2018-05-31T23:11:45.988Z,15.70
2018-05-31T23:14:11.839Z,13.77
2018-05-31T23:16:37.780Z,14.97
2018-05-31T23:19:03.681Z,15.30
2018-05-31T23:21:29.556Z,14.90
2018-05-31T23:23:55.410Z,14.80
2018-05-31T23:26:21.265Z,15.60
2018-05-31T23:28:47.125Z,16.07
2018-05-31T23:31:12.952Z,15.60
2018-05-31T23:33:38.773Z,17.03
2018-05-31T23:36:04.667Z,15.70
2018-05-31T23:38:30.504Z,16.30
2018-05-31T23:40:56.330Z,16.17
2018-05-31T23:43:22.150Z,16.20
2018-05-31T23:45:47.964Z,16.83
2018-05-31T23:48:13.837Z,15.87
2018-05-31T23:50:39.674Z,16.43
2018-05-31T23:53:05.545Z,16.13
2018-05-31T23:55:31.408Z,16.53
2018-05-31T23:57:57.271Z,16.27
